sensor_id;sensor_type;location;lat;lon;timestamp;temperature;humidity
73360;DHT22;63092;43.582;19.528;2024-02-15T00:00:04;4.20;99.90
73360;DHT22;63092;43.582;19.528;2024-02-15T00:02:32;4.20;99.90
73360;DHT22;63092;43.582;19.528;2024-02-15T00:04:58;4.20;99.90
73360;DHT22;63092;43.582;19.528;2024-02-15T00:07:24;4.20;99.90
73360;DHT22;63092;43.582;19.528;2024-02-15T00:09:51;4.20;99.90
73360;DHT22;63092;43.582;19.528;2024-02-15T00:12:19;4.20;99.90
73360;DHT22;63092;43.582;19.528;2024-02-15T00:14:45;4.10;99.90
73360;DHT22;63092;43.582;19.528;2024-02-15T00:17:11;4.10;99.90
73360;DHT22;63092;43.582;19.528;2024-02-15T00:19:37;4.10;99.90
73360;DHT22;63092;43.582;19.528;2024-02-15T00:22:05;4.00;99.90
73360;DHT22;63092;43.582;19.528;2024-02-15T00:24:31;4.10;99.90
73360;DHT22;63092;43.582;19.528;2024-02-15T00:26:57;4.10;99.90
73360;DHT22;63092;43.582;19.528;2024-02-15T00:29:23;4.00;99.90
73360;DHT22;63092;43.582;19.528;2024-02-15T00:31:50;3.90;99.90
73360;DHT22;63092;43.582;19.528;2024-02-15T00:34:16;3.90;99.90
73360;DHT22;63092;43.582;19.528;2024-02-15T00:36:42;3.90;99.90
73360;DHT22;63092;43.582;19.528;2024-02-15T00:39:09;4.00;99.90
73360;DHT22;63092;43.582;19.528;2024-02-15T00:41:37;3.90;99.90
73360;DHT22;63092;43.582;19.528;2024-02-15T00:44:10;3.90;99.90
73360;DHT22;63092;43.582;19.528;2024-02-15T00:46:36;3.90;99.90
73360;DHT22;63092;43.582;19.528;2024-02-15T00:49:03;3.80;99.90
73360;DHT22;63092;43.582;19.528;2024-02-15T00:51:32;3.80;99.90
73360;DHT22;63092;43.582;19.528;2024-02-15T00:53:59;3.80;99.90
73360;DHT22;63092;43.582;19.528;2024-02-15T00:56:25;3.80;99.90
73360;DHT22;63092;43.582;19.528;2024-02-15T00:58:51;3.80;99.90
73360;DHT22;63092;43.582;19.528;2024-02-15T01:01:17;3.80;99.90
73360;DHT22;63092;43.582;19.528;2024-02-15T01:03:43;3.80;99.90
73360;DHT22;63092;43.582;19.528;2024-02-15T01:06:08;3.80;99.90
73360;DHT22;63092;43.582;19.528;2024-02-15T01:08:34;3.80;99.90
73360;DHT22;63092;43.582;19.528;2024-02-15T01:11:00;3.80;99.90
73360;DHT22;63092;43.582;19.528;2024-02-15T01:13:26;3.70;99.90
73360;DHT22;63092;43.582;19.528;2024-02-15T01:15:51;3.70;99.90
73360;DHT22;63092;43.582;19.528;2024-02-15T01:18:17;3.70;99.90
73360;DHT22;63092;43.582;19.528;2024-02-15T01:20:43;3.70;99.90
73360;DHT22;63092;43.582;19.528;2024-02-15T01:23:10;3.60;99.90
73360;DHT22;63092;43.582;19.528;2024-02-15T01:25:36;3.60;99.90
73360;DHT22;63092;43.582;19.528;2024-02-15T01:28:02;3.70;99.90
73360;DHT22;63092;43.582;19.528;2024-02-15T01:30:28;3.60;99.90
73360;DHT22;63092;43.582;19.528;2024-02-15T01:32:57;3.60;99.90
73360;DHT22;63092;43.582;19.528;2024-02-15T01:35:23;3.60;99.90
73360;DHT22;63092;43.582;19.528;2024-02-15T01:37:50;3.60;99.90
73360;DHT22;63092;43.582;19.528;2024-02-15T01:40:16;3.60;99.90
73360;DHT22;63092;43.582;19.528;2024-02-15T01:42:45;3.50;99.90
73360;DHT22;63092;43.582;19.528;2024-02-15T01:45:10;3.50;99.90
73360;DHT22;63092;43.582;19.528;2024-02-15T01:47:40;3.60;99.90
73360;DHT22;63092;43.582;19.528;2024-02-15T01:50:06;3.50;99.90
73360;DHT22;63092;43.582;19.528;2024-02-15T01:52:33;3.50;99.90
73360;DHT22;63092;43.582;19.528;2024-02-15T01:54:59;3.40;99.90
73360;DHT22;63092;43.582;19.528;2024-02-15T01:57:35;3.50;99.90
73360;DHT22;63092;43.582;19.528;2024-02-15T02:00:02;3.40;99.90
73360;DHT22;63092;43.582;19.528;2024-02-15T02:02:31;3.30;99.90
73360;DHT22;63092;43.582;19.528;2024-02-15T02:04:59;3.30;99.90
73360;DHT22;63092;43.582;19.528;2024-02-15T02:07:25;3.20;99.90
73360;DHT22;63092;43.582;19.528;2024-02-15T02:09:51;3.20;99.90
73360;DHT22;63092;43.582;19.528;2024-02-15T02:12:17;3.30;99.90
73360;DHT22;63092;43.582;19.528;2024-02-15T02:14:43;3.30;99.90
73360;DHT22;63092;43.582;19.528;2024-02-15T02:17:16;3.30;99.90
73360;DHT22;63092;43.582;19.528;2024-02-15T02:19:42;3.40;99.90
73360;DHT22;63092;43.582;19.528;2024-02-15T02:22:09;3.30;99.90
73360;DHT22;63092;43.582;19.528;2024-02-15T02:25:01;3.30;99.90
73360;DHT22;63092;43.582;19.528;2024-02-15T02:27:27;3.30;99.90
73360;DHT22;63092;43.582;19.528;2024-02-15T02:29:53;3.20;99.90
73360;DHT22;63092;43.582;19.528;2024-02-15T02:32:19;3.30;99.90
73360;DHT22;63092;43.582;19.528;2024-02-15T02:34:45;3.20;99.90
73360;DHT22;63092;43.582;19.528;2024-02-15T02:37:10;3.20;99.90
73360;DHT22;63092;43.582;19.528;2024-02-15T02:39:39;3.20;99.90
73360;DHT22;63092;43.582;19.528;2024-02-15T02:42:05;3.20;99.90
73360;DHT22;63092;43.582;19.528;2024-02-15T02:44:30;3.20;99.90
73360;DHT22;63092;43.582;19.528;2024-02-15T02:46:56;3.20;99.90
73360;DHT22;63092;43.582;19.528;2024-02-15T02:49:22;3.20;99.90
73360;DHT22;63092;43.582;19.528;2024-02-15T02:51:48;3.20;99.90
73360;DHT22;63092;43.582;19.528;2024-02-15T02:54:14;3.20;99.90
73360;DHT22;63092;43.582;19.528;2024-02-15T02:56:40;3.20;99.90
73360;DHT22;63092;43.582;19.528;2024-02-15T02:59:06;3.20;99.90
73360;DHT22;63092;43.582;19.528;2024-02-15T03:01:33;3.20;99.90
73360;DHT22;63092;43.582;19.528;2024-02-15T03:03:59;3.20;99.90
73360;DHT22;63092;43.582;19.528;2024-02-15T03:06:24;3.20;99.90
73360;DHT22;63092;43.582;19.528;2024-02-15T03:08:50;3.20;99.90
73360;DHT22;63092;43.582;19.528;2024-02-15T03:11:23;3.20;99.90
73360;DHT22;63092;43.582;19.528;2024-02-15T03:13:49;3.20;99.90
73360;DHT22;63092;43.582;19.528;2024-02-15T03:16:15;3.10;99.90
73360;DHT22;63092;43.582;19.528;2024-02-15T03:18:42;3.10;99.90
73360;DHT22;63092;43.582;19.528;2024-02-15T03:21:08;3.10;99.90
73360;DHT22;63092;43.582;19.528;2024-02-15T03:23:37;3.10;99.90
73360;DHT22;63092;43.582;19.528;2024-02-15T03:26:03;3.10;99.90
73360;DHT22;63092;43.582;19.528;2024-02-15T03:28:31;3.10;99.90
73360;DHT22;63092;43.582;19.528;2024-02-15T03:30:57;3.10;99.90
73360;DHT22;63092;43.582;19.528;2024-02-15T03:33:26;3.10;99.90
73360;DHT22;63092;43.582;19.528;2024-02-15T03:35:54;3.20;99.90
73360;DHT22;63092;43.582;19.528;2024-02-15T03:38:26;3.20;99.90
73360;DHT22;63092;43.582;19.528;2024-02-15T03:40:52;3.20;99.90
73360;DHT22;63092;43.582;19.528;2024-02-15T03:43:19;3.20;99.90
73360;DHT22;63092;43.582;19.528;2024-02-15T03:45:44;3.20;99.90
73360;DHT22;63092;43.582;19.528;2024-02-15T03:48:10;3.20;99.90
73360;DHT22;63092;43.582;19.528;2024-02-15T03:50:37;3.20;99.90
73360;DHT22;63092;43.582;19.528;2024-02-15T03:53:04;3.20;99.90
73360;DHT22;63092;43.582;19.528;2024-02-15T03:55:29;3.20;99.90
73360;DHT22;63092;43.582;19.528;2024-02-15T03:57:55;3.10;99.90
73360;DHT22;63092;43.582;19.528;2024-02-15T04:00:23;2.90;99.90
73360;DHT22;63092;43.582;19.528;2024-02-15T04:02:50;3.00;99.90
73360;DHT22;63092;43.582;19.528;2024-02-15T04:05:16;3.00;99.90
73360;DHT22;63092;43.582;19.528;2024-02-15T04:07:44;3.10;99.90
73360;DHT22;63092;43.582;19.528;2024-02-15T04:10:10;3.10;99.90
73360;DHT22;63092;43.582;19.528;2024-02-15T04:12:36;3.10;99.90
73360;DHT22;63092;43.582;19.528;2024-02-15T04:15:02;3.00;99.90
73360;DHT22;63092;43.582;19.528;2024-02-15T04:17:32;3.00;99.90
73360;DHT22;63092;43.582;19.528;2024-02-15T04:20:00;2.80;99.90
73360;DHT22;63092;43.582;19.528;2024-02-15T04:22:26;2.70;99.90
73360;DHT22;63092;43.582;19.528;2024-02-15T04:24:52;2.70;99.90
73360;DHT22;63092;43.582;19.528;2024-02-15T04:27:18;2.60;99.90
73360;DHT22;63092;43.582;19.528;2024-02-15T04:29:46;2.60;99.90
73360;DHT22;63092;43.582;19.528;2024-02-15T04:32:12;2.50;99.90
73360;DHT22;63092;43.582;19.528;2024-02-15T04:34:39;2.30;99.90
73360;DHT22;63092;43.582;19.528;2024-02-15T04:37:05;2.20;99.90
73360;DHT22;63092;43.582;19.528;2024-02-15T04:39:35;2.40;99.90
73360;DHT22;63092;43.582;19.528;2024-02-15T04:42:02;2.40;99.90
73360;DHT22;63092;43.582;19.528;2024-02-15T04:44:28;2.40;99.90
73360;DHT22;63092;43.582;19.528;2024-02-15T04:46:55;2.50;99.90
73360;DHT22;63092;43.582;19.528;2024-02-15T04:49:21;2.60;99.90
73360;DHT22;63092;43.582;19.528;2024-02-15T04:51:47;2.60;99.90
73360;DHT22;63092;43.582;19.528;2024-02-15T04:54:15;2.70;99.90
73360;DHT22;63092;43.582;19.528;2024-02-15T04:56:41;2.80;99.90
73360;DHT22;63092;43.582;19.528;2024-02-15T04:59:10;2.90;99.90
73360;DHT22;63092;43.582;19.528;2024-02-15T05:01:42;3.00;99.90
73360;DHT22;63092;43.582;19.528;2024-02-15T05:04:09;2.90;99.90
73360;DHT22;63092;43.582;19.528;2024-02-15T05:06:35;3.00;99.90
73360;DHT22;63092;43.582;19.528;2024-02-15T05:09:02;3.10;99.90
73360;DHT22;63092;43.582;19.528;2024-02-15T05:11:33;3.10;99.90
73360;DHT22;63092;43.582;19.528;2024-02-15T05:14:02;3.10;99.90
73360;DHT22;63092;43.582;19.528;2024-02-15T05:16:34;3.20;99.90
73360;DHT22;63092;43.582;19.528;2024-02-15T05:19:00;3.20;99.90
73360;DHT22;63092;43.582;19.528;2024-02-15T05:21:26;3.30;99.90
73360;DHT22;63092;43.582;19.528;2024-02-15T05:23:52;3.20;99.90
73360;DHT22;63092;43.582;19.528;2024-02-15T05:26:18;3.20;99.90
73360;DHT22;63092;43.582;19.528;2024-02-15T05:28:52;3.20;99.90
73360;DHT22;63092;43.582;19.528;2024-02-15T05:31:19;3.20;99.90
73360;DHT22;63092;43.582;19.528;2024-02-15T05:33:53;3.20;99.90
73360;DHT22;63092;43.582;19.528;2024-02-15T05:36:20;3.20;99.90
73360;DHT22;63092;43.582;19.528;2024-02-15T05:38:49;3.20;99.90
73360;DHT22;63092;43.582;19.528;2024-02-15T05:41:15;3.20;99.90
73360;DHT22;63092;43.582;19.528;2024-02-15T05:43:42;3.20;99.90
73360;DHT22;63092;43.582;19.528;2024-02-15T05:46:08;3.30;99.90
73360;DHT22;63092;43.582;19.528;2024-02-15T05:48:38;3.20;99.90
73360;DHT22;63092;43.582;19.528;2024-02-15T05:51:05;3.20;99.90
73360;DHT22;63092;43.582;19.528;2024-02-15T05:53:32;3.20;99.90
73360;DHT22;63092;43.582;19.528;2024-02-15T05:56:08;3.00;99.90
73360;DHT22;63092;43.582;19.528;2024-02-15T05:58:36;3.00;99.90
73360;DHT22;63092;43.582;19.528;2024-02-15T06:01:03;3.00;99.90
73360;DHT22;63092;43.582;19.528;2024-02-15T06:03:35;3.10;99.90
73360;DHT22;63092;43.582;19.528;2024-02-15T06:06:05;3.20;99.90
73360;DHT22;63092;43.582;19.528;2024-02-15T06:08:35;3.20;99.90
73360;DHT22;63092;43.582;19.528;2024-02-15T06:11:01;3.30;99.90
73360;DHT22;63092;43.582;19.528;2024-02-15T06:13:27;3.30;99.90
73360;DHT22;63092;43.582;19.528;2024-02-15T06:15:53;3.40;99.90
73360;DHT22;63092;43.582;19.528;2024-02-15T06:18:25;3.40;99.90
73360;DHT22;63092;43.582;19.528;2024-02-15T06:20:52;3.50;99.90
73360;DHT22;63092;43.582;19.528;2024-02-15T06:23:19;3.10;99.90
73360;DHT22;63092;43.582;19.528;2024-02-15T06:25:50;3.20;99.90
73360;DHT22;63092;43.582;19.528;2024-02-15T06:28:16;3.30;99.90
73360;DHT22;63092;43.582;19.528;2024-02-15T06:31:06;3.40;99.90
73360;DHT22;63092;43.582;19.528;2024-02-15T06:33:50;3.50;99.90
73360;DHT22;63092;43.582;19.528;2024-02-15T06:36:36;3.60;99.90
73360;DHT22;63092;43.582;19.528;2024-02-15T06:39:23;3.60;99.90
73360;DHT22;63092;43.582;19.528;2024-02-15T06:42:04;3.60;99.90
73360;DHT22;63092;43.582;19.528;2024-02-15T06:44:30;3.70;99.90
73360;DHT22;63092;43.582;19.528;2024-02-15T06:46:56;3.80;99.90
73360;DHT22;63092;43.582;19.528;2024-02-15T06:49:23;3.80;99.90
73360;DHT22;63092;43.582;19.528;2024-02-15T06:51:52;3.80;99.90
73360;DHT22;63092;43.582;19.528;2024-02-15T06:54:18;3.80;99.90
73360;DHT22;63092;43.582;19.528;2024-02-15T06:56:46;3.90;99.90
73360;DHT22;63092;43.582;19.528;2024-02-15T06:59:13;3.80;99.90
73360;DHT22;63092;43.582;19.528;2024-02-15T07:01:44;3.80;99.90
73360;DHT22;63092;43.582;19.528;2024-02-15T07:04:10;3.80;99.90
73360;DHT22;63092;43.582;19.528;2024-02-15T07:06:36;3.90;99.90
73360;DHT22;63092;43.582;19.528;2024-02-15T07:09:05;3.80;99.90
73360;DHT22;63092;43.582;19.528;2024-02-15T07:11:33;3.80;99.90
73360;DHT22;63092;43.582;19.528;2024-02-15T07:14:02;3.90;99.90
73360;DHT22;63092;43.582;19.528;2024-02-15T07:16:30;4.00;99.90
73360;DHT22;63092;43.582;19.528;2024-02-15T07:18:56;4.10;99.90
73360;DHT22;63092;43.582;19.528;2024-02-15T07:21:22;4.20;99.90
73360;DHT22;63092;43.582;19.528;2024-02-15T07:23:55;4.20;99.90
73360;DHT22;63092;43.582;19.528;2024-02-15T07:26:23;4.30;99.90
73360;DHT22;63092;43.582;19.528;2024-02-15T07:28:54;4.30;99.90
73360;DHT22;63092;43.582;19.528;2024-02-15T07:31:20;4.30;99.90
73360;DHT22;63092;43.582;19.528;2024-02-15T07:33:51;4.40;99.90
73360;DHT22;63092;43.582;19.528;2024-02-15T07:36:21;4.60;99.90
73360;DHT22;63092;43.582;19.528;2024-02-15T07:38:53;4.50;99.90
73360;DHT22;63092;43.582;19.528;2024-02-15T07:41:22;4.50;99.90
73360;DHT22;63092;43.582;19.528;2024-02-15T07:43:51;4.50;99.90
73360;DHT22;63092;43.582;19.528;2024-02-15T07:46:18;4.50;99.90
73360;DHT22;63092;43.582;19.528;2024-02-15T07:48:44;4.60;99.90
73360;DHT22;63092;43.582;19.528;2024-02-15T07:51:18;4.70;99.90
73360;DHT22;63092;43.582;19.528;2024-02-15T07:53:44;4.70;99.90
73360;DHT22;63092;43.582;19.528;2024-02-15T07:56:10;4.80;99.90
73360;DHT22;63092;43.582;19.528;2024-02-15T07:58:44;4.80;99.90
73360;DHT22;63092;43.582;19.528;2024-02-15T08:01:14;4.90;99.90
73360;DHT22;63092;43.582;19.528;2024-02-15T08:03:40;4.90;99.90
73360;DHT22;63092;43.582;19.528;2024-02-15T08:06:12;5.00;99.90
73360;DHT22;63092;43.582;19.528;2024-02-15T08:08:42;5.00;99.90
73360;DHT22;63092;43.582;19.528;2024-02-15T08:11:12;5.10;99.90
73360;DHT22;63092;43.582;19.528;2024-02-15T08:16:10;5.10;99.90
73360;DHT22;63092;43.582;19.528;2024-02-15T08:18:38;5.20;99.90
73360;DHT22;63092;43.582;19.528;2024-02-15T08:21:05;5.20;99.90
73360;DHT22;63092;43.582;19.528;2024-02-15T08:23:31;5.20;99.90
73360;DHT22;63092;43.582;19.528;2024-02-15T08:25:57;5.20;99.90
73360;DHT22;63092;43.582;19.528;2024-02-15T08:28:23;5.10;99.90
73360;DHT22;63092;43.582;19.528;2024-02-15T08:30:49;5.10;99.90
73360;DHT22;63092;43.582;19.528;2024-02-15T08:33:17;5.10;99.90
73360;DHT22;63092;43.582;19.528;2024-02-15T08:35:44;5.10;99.90
73360;DHT22;63092;43.582;19.528;2024-02-15T08:38:10;5.00;99.90
73360;DHT22;63092;43.582;19.528;2024-02-15T08:40:36;5.00;99.90
73360;DHT22;63092;43.582;19.528;2024-02-15T08:43:02;5.10;99.90
73360;DHT22;63092;43.582;19.528;2024-02-15T08:45:28;5.10;99.90
73360;DHT22;63092;43.582;19.528;2024-02-15T08:47:53;5.10;99.90
73360;DHT22;63092;43.582;19.528;2024-02-15T08:50:19;5.20;99.90
73360;DHT22;63092;43.582;19.528;2024-02-15T08:52:48;5.30;99.90
73360;DHT22;63092;43.582;19.528;2024-02-15T08:55:13;5.40;99.90
73360;DHT22;63092;43.582;19.528;2024-02-15T08:57:40;5.40;99.90
73360;DHT22;63092;43.582;19.528;2024-02-15T09:00:10;5.60;99.90
73360;DHT22;63092;43.582;19.528;2024-02-15T09:02:47;5.60;99.90
73360;DHT22;63092;43.582;19.528;2024-02-15T09:05:14;5.70;99.90
73360;DHT22;63092;43.582;19.528;2024-02-15T09:07:41;5.80;99.90
73360;DHT22;63092;43.582;19.528;2024-02-15T09:10:09;5.90;99.90
73360;DHT22;63092;43.582;19.528;2024-02-15T09:12:36;6.00;99.90
73360;DHT22;63092;43.582;19.528;2024-02-15T09:15:06;6.10;99.90
73360;DHT22;63092;43.582;19.528;2024-02-15T09:17:34;6.20;99.90
73360;DHT22;63092;43.582;19.528;2024-02-15T09:20:09;6.30;99.50
73360;DHT22;63092;43.582;19.528;2024-02-15T09:22:47;6.40;98.90
73360;DHT22;63092;43.582;19.528;2024-02-15T09:25:13;6.40;98.00
73360;DHT22;63092;43.582;19.528;2024-02-15T09:27:39;6.50;98.00
73360;DHT22;63092;43.582;19.528;2024-02-15T09:30:05;6.60;98.10
73360;DHT22;63092;43.582;19.528;2024-02-15T09:32:41;6.70;98.20
73360;DHT22;63092;43.582;19.528;2024-02-15T09:35:07;6.80;97.60
73360;DHT22;63092;43.582;19.528;2024-02-15T09:37:36;7.00;97.60
73360;DHT22;63092;43.582;19.528;2024-02-15T09:40:08;7.10;97.40
73360;DHT22;63092;43.582;19.528;2024-02-15T09:42:36;7.20;97.00
73360;DHT22;63092;43.582;19.528;2024-02-15T09:45:02;7.30;96.60
73360;DHT22;63092;43.582;19.528;2024-02-15T09:47:35;7.40;96.40
73360;DHT22;63092;43.582;19.528;2024-02-15T09:50:02;7.40;95.70
73360;DHT22;63092;43.582;19.528;2024-02-15T09:52:31;7.50;95.30
73360;DHT22;63092;43.582;19.528;2024-02-15T09:55:00;7.60;94.90
73360;DHT22;63092;43.582;19.528;2024-02-15T09:57:29;7.70;94.20
73360;DHT22;63092;43.582;19.528;2024-02-15T09:59:57;7.80;93.70
73360;DHT22;63092;43.582;19.528;2024-02-15T10:02:24;7.80;93.30
73360;DHT22;63092;43.582;19.528;2024-02-15T10:04:52;7.90;93.50
73360;DHT22;63092;43.582;19.528;2024-02-15T10:07:18;8.10;92.90
73360;DHT22;63092;43.582;19.528;2024-02-15T10:09:44;8.20;92.60
73360;DHT22;63092;43.582;19.528;2024-02-15T10:12:10;8.30;92.40
73360;DHT22;63092;43.582;19.528;2024-02-15T10:14:36;8.40;92.10
73360;DHT22;63092;43.582;19.528;2024-02-15T10:17:08;8.50;91.90
73360;DHT22;63092;43.582;19.528;2024-02-15T10:19:39;8.60;91.50
73360;DHT22;63092;43.582;19.528;2024-02-15T10:22:09;8.80;92.40
73360;DHT22;63092;43.582;19.528;2024-02-15T10:24:35;8.80;90.80
73360;DHT22;63092;43.582;19.528;2024-02-15T10:27:03;8.80;90.90
73360;DHT22;63092;43.582;19.528;2024-02-15T10:29:30;8.80;91.50
73360;DHT22;63092;43.582;19.528;2024-02-15T10:31:57;8.80;90.00
73360;DHT22;63092;43.582;19.528;2024-02-15T10:34:24;8.90;90.80
73360;DHT22;63092;43.582;19.528;2024-02-15T10:37:13;8.90;90.70
73360;DHT22;63092;43.582;19.528;2024-02-15T10:39:39;8.90;90.30
73360;DHT22;63092;43.582;19.528;2024-02-15T10:42:09;9.00;90.80
73360;DHT22;63092;43.582;19.528;2024-02-15T10:44:38;9.10;91.20
73360;DHT22;63092;43.582;19.528;2024-02-15T10:47:04;9.20;90.70
73360;DHT22;63092;43.582;19.528;2024-02-15T10:49:33;9.20;90.40
73360;DHT22;63092;43.582;19.528;2024-02-15T10:52:00;9.20;90.50
73360;DHT22;63092;43.582;19.528;2024-02-15T10:54:52;9.30;90.90
73360;DHT22;63092;43.582;19.528;2024-02-15T10:57:22;9.30;90.40
73360;DHT22;63092;43.582;19.528;2024-02-15T10:59:52;9.30;90.90
73360;DHT22;63092;43.582;19.528;2024-02-15T11:02:37;9.30;90.50
73360;DHT22;63092;43.582;19.528;2024-02-15T11:05:04;9.50;90.90
73360;DHT22;63092;43.582;19.528;2024-02-15T11:07:34;9.60;92.00
73360;DHT22;63092;43.582;19.528;2024-02-15T11:10:01;9.70;90.10
73360;DHT22;63092;43.582;19.528;2024-02-15T11:12:28;9.80;91.00
73360;DHT22;63092;43.582;19.528;2024-02-15T11:14:54;9.90;90.00
73360;DHT22;63092;43.582;19.528;2024-02-15T11:23:02;10.10;87.90
73360;DHT22;63092;43.582;19.528;2024-02-15T11:25:39;10.10;88.50
73360;DHT22;63092;43.582;19.528;2024-02-15T11:30:53;10.20;87.50
73360;DHT22;63092;43.582;19.528;2024-02-15T11:33:34;10.30;86.90
73360;DHT22;63092;43.582;19.528;2024-02-15T11:36:08;10.40;85.90
73360;DHT22;63092;43.582;19.528;2024-02-15T11:38:35;10.60;86.30
73360;DHT22;63092;43.582;19.528;2024-02-15T11:41:05;10.70;85.80
73360;DHT22;63092;43.582;19.528;2024-02-15T11:46:11;10.90;84.50
73360;DHT22;63092;43.582;19.528;2024-02-15T11:48:39;10.90;84.30
73360;DHT22;63092;43.582;19.528;2024-02-15T11:51:05;11.00;84.40
73360;DHT22;63092;43.582;19.528;2024-02-15T11:53:32;11.00;84.60
73360;DHT22;63092;43.582;19.528;2024-02-15T11:56:01;11.00;84.10
73360;DHT22;63092;43.582;19.528;2024-02-15T11:58:33;11.10;84.40
73360;DHT22;63092;43.582;19.528;2024-02-15T12:01:17;11.00;83.80
73360;DHT22;63092;43.582;19.528;2024-02-15T12:04:02;11.00;84.20
73360;DHT22;63092;43.582;19.528;2024-02-15T12:06:46;11.00;83.90
73360;DHT22;63092;43.582;19.528;2024-02-15T12:09:30;10.90;84.30
73360;DHT22;63092;43.582;19.528;2024-02-15T12:12:14;10.90;84.80
73360;DHT22;63092;43.582;19.528;2024-02-15T12:15:02;11.00;84.60
73360;DHT22;63092;43.582;19.528;2024-02-15T12:17:47;11.00;84.30
73360;DHT22;63092;43.582;19.528;2024-02-15T12:20:31;11.10;84.00
73360;DHT22;63092;43.582;19.528;2024-02-15T12:22:58;11.20;84.10
73360;DHT22;63092;43.582;19.528;2024-02-15T12:25:27;11.20;84.00
73360;DHT22;63092;43.582;19.528;2024-02-15T12:27:54;11.30;82.90
73360;DHT22;63092;43.582;19.528;2024-02-15T12:30:20;11.40;83.30
73360;DHT22;63092;43.582;19.528;2024-02-15T12:32:47;11.40;82.50
73360;DHT22;63092;43.582;19.528;2024-02-15T12:35:21;11.50;82.40
73360;DHT22;63092;43.582;19.528;2024-02-15T12:40:36;11.40;82.00
73360;DHT22;63092;43.582;19.528;2024-02-15T12:43:05;11.40;83.30
73360;DHT22;63092;43.582;19.528;2024-02-15T12:45:32;11.40;82.50
73360;DHT22;63092;43.582;19.528;2024-02-15T12:47:58;11.40;82.90
73360;DHT22;63092;43.582;19.528;2024-02-15T12:50:27;11.50;82.70
73360;DHT22;63092;43.582;19.528;2024-02-15T12:52:54;11.60;83.10
73360;DHT22;63092;43.582;19.528;2024-02-15T12:55:24;11.80;83.50
73360;DHT22;63092;43.582;19.528;2024-02-15T12:57:51;11.80;82.10
73360;DHT22;63092;43.582;19.528;2024-02-15T13:00:22;11.80;81.00
73360;DHT22;63092;43.582;19.528;2024-02-15T13:02:50;11.90;81.50
73360;DHT22;63092;43.582;19.528;2024-02-15T13:05:17;12.00;81.00
73360;DHT22;63092;43.582;19.528;2024-02-15T13:07:50;12.00;80.50
73360;DHT22;63092;43.582;19.528;2024-02-15T13:10:17;12.10;80.70
73360;DHT22;63092;43.582;19.528;2024-02-15T13:12:43;12.20;81.10
73360;DHT22;63092;43.582;19.528;2024-02-15T13:15:12;12.30;80.60
73360;DHT22;63092;43.582;19.528;2024-02-15T13:17:49;12.30;79.90
73360;DHT22;63092;43.582;19.528;2024-02-15T13:20:25;12.30;80.30
73360;DHT22;63092;43.582;19.528;2024-02-15T13:22:58;12.40;80.30
73360;DHT22;63092;43.582;19.528;2024-02-15T13:25:28;12.20;79.80
73360;DHT22;63092;43.582;19.528;2024-02-15T13:27:55;12.30;80.10
73360;DHT22;63092;43.582;19.528;2024-02-15T13:30:21;12.30;81.00
73360;DHT22;63092;43.582;19.528;2024-02-15T13:32:49;12.30;80.20
73360;DHT22;63092;43.582;19.528;2024-02-15T13:35:17;12.30;79.90
73360;DHT22;63092;43.582;19.528;2024-02-15T13:37:49;12.40;80.80
73360;DHT22;63092;43.582;19.528;2024-02-15T13:40:15;12.30;80.10
73360;DHT22;63092;43.582;19.528;2024-02-15T13:42:45;12.30;80.20
73360;DHT22;63092;43.582;19.528;2024-02-15T13:45:45;12.30;80.90
73360;DHT22;63092;43.582;19.528;2024-02-15T13:48:11;12.30;79.80
73360;DHT22;63092;43.582;19.528;2024-02-15T13:50:40;12.40;80.10
73360;DHT22;63092;43.582;19.528;2024-02-15T13:53:06;12.40;80.00
73360;DHT22;63092;43.582;19.528;2024-02-15T13:55:32;12.40;79.80
73360;DHT22;63092;43.582;19.528;2024-02-15T13:57:58;12.40;80.20
73360;DHT22;63092;43.582;19.528;2024-02-15T14:00:24;12.50;80.10
73360;DHT22;63092;43.582;19.528;2024-02-15T14:03:00;12.50;80.30
73360;DHT22;63092;43.582;19.528;2024-02-15T14:05:27;12.60;79.50
73360;DHT22;63092;43.582;19.528;2024-02-15T14:08:02;12.60;79.30
73360;DHT22;63092;43.582;19.528;2024-02-15T14:10:30;12.60;79.20
73360;DHT22;63092;43.582;19.528;2024-02-15T14:12:55;12.60;80.20
73360;DHT22;63092;43.582;19.528;2024-02-15T14:15:24;12.60;80.20
73360;DHT22;63092;43.582;19.528;2024-02-15T14:17:49;12.70;80.10
73360;DHT22;63092;43.582;19.528;2024-02-15T14:20:15;12.70;79.70
73360;DHT22;63092;43.582;19.528;2024-02-15T14:22:45;12.80;79.20
73360;DHT22;63092;43.582;19.528;2024-02-15T14:25:15;12.70;79.70
73360;DHT22;63092;43.582;19.528;2024-02-15T14:27:40;12.70;80.10
73360;DHT22;63092;43.582;19.528;2024-02-15T14:30:08;12.70;80.10
73360;DHT22;63092;43.582;19.528;2024-02-15T14:32:52;12.60;79.50
73360;DHT22;63092;43.582;19.528;2024-02-15T14:35:34;12.60;79.00
73360;DHT22;63092;43.582;19.528;2024-02-15T14:38:05;12.50;79.10
73360;DHT22;63092;43.582;19.528;2024-02-15T14:40:39;12.50;79.30
73360;DHT22;63092;43.582;19.528;2024-02-15T14:43:06;12.50;78.50
73360;DHT22;63092;43.582;19.528;2024-02-15T14:45:35;12.50;79.50
73360;DHT22;63092;43.582;19.528;2024-02-15T14:48:04;12.40;78.40
73360;DHT22;63092;43.582;19.528;2024-02-15T14:50:30;12.40;79.60
73360;DHT22;63092;43.582;19.528;2024-02-15T14:52:56;12.20;79.90
73360;DHT22;63092;43.582;19.528;2024-02-15T14:55:22;12.20;79.90
73360;DHT22;63092;43.582;19.528;2024-02-15T14:57:48;12.20;79.80
73360;DHT22;63092;43.582;19.528;2024-02-15T15:00:14;12.20;80.00
73360;DHT22;63092;43.582;19.528;2024-02-15T15:02:47;12.10;79.70
73360;DHT22;63092;43.582;19.528;2024-02-15T15:05:15;12.10;80.40
73360;DHT22;63092;43.582;19.528;2024-02-15T15:08:00;12.00;80.90
73360;DHT22;63092;43.582;19.528;2024-02-15T15:10:48;12.00;81.80
73360;DHT22;63092;43.582;19.528;2024-02-15T15:13:33;12.00;81.60
73360;DHT22;63092;43.582;19.528;2024-02-15T15:16:02;12.00;81.80
73360;DHT22;63092;43.582;19.528;2024-02-15T15:18:28;12.00;81.70
73360;DHT22;63092;43.582;19.528;2024-02-15T15:20:58;11.90;82.20
73360;DHT22;63092;43.582;19.528;2024-02-15T15:23:25;11.90;83.60
73360;DHT22;63092;43.582;19.528;2024-02-15T15:25:51;11.90;83.30
73360;DHT22;63092;43.582;19.528;2024-02-15T15:28:17;11.90;83.50
73360;DHT22;63092;43.582;19.528;2024-02-15T15:30:44;11.80;84.10
73360;DHT22;63092;43.582;19.528;2024-02-15T15:33:15;11.80;83.40
73360;DHT22;63092;43.582;19.528;2024-02-15T15:35:41;11.80;84.50
73360;DHT22;63092;43.582;19.528;2024-02-15T15:38:07;11.70;84.30
73360;DHT22;63092;43.582;19.528;2024-02-15T15:40:32;11.60;84.80
73360;DHT22;63092;43.582;19.528;2024-02-15T15:42:58;11.60;85.00
73360;DHT22;63092;43.582;19.528;2024-02-15T15:45:24;11.60;86.10
73360;DHT22;63092;43.582;19.528;2024-02-15T15:47:50;11.50;86.60
73360;DHT22;63092;43.582;19.528;2024-02-15T15:50:16;11.40;87.20
73360;DHT22;63092;43.582;19.528;2024-02-15T15:52:42;11.30;87.40